createdAt,value
2018-08-24T00:00:17.494Z,5.52
2018-08-24T00:00:52.985Z,2.40
2018-08-24T00:01:28.220Z,1.04
2018-08-24T00:02:03.595Z,4.00
2018-08-24T00:02:38.730Z,4.40
2018-08-24T00:03:14.064Z,2.24
2018-08-24T00:03:49.370Z,9.36
2018-08-24T00:04:24.979Z,5.36
2018-08-24T00:05:00.281Z,15.13
2018-08-24T00:05:35.793Z,7.68
2018-08-24T00:06:10.933Z,5.76
2018-08-24T00:06:46.309Z,4.64
2018-08-24T00:07:21.670Z,5.92
2018-08-24T00:07:57.037Z,1.68
2018-08-24T00:08:32.350Z,4.64
2018-08-24T00:09:07.472Z,4.64
2018-08-24T00:09:42.829Z,4.72
2018-08-24T00:10:18.056Z,1.44
2018-08-24T00:10:53.280Z,0.40
2018-08-24T00:11:28.614Z,0.72
2018-08-24T00:12:03.949Z,2.32
2018-08-24T00:12:39.376Z,2.88
2018-08-24T00:13:14.908Z,4.64
2018-08-24T00:13:50.341Z,2.48
2018-08-24T00:14:25.865Z,3.52
2018-08-24T00:15:00.853Z,3.84
2018-08-24T00:15:36.497Z,5.04
2018-08-24T00:16:11.932Z,3.52
2018-08-24T00:16:46.954Z,1.36
2018-08-24T00:17:22.404Z,2.88
2018-08-24T00:17:57.902Z,2.24
2018-08-24T00:18:33.312Z,2.24
2018-08-24T00:19:08.729Z,5.60
2018-08-24T00:19:43.969Z,2.64
2018-08-24T00:20:19.281Z,2.32
2018-08-24T00:20:54.817Z,4.56
2018-08-24T00:21:30.156Z,2.08
2018-08-24T00:22:05.498Z,1.92
2018-08-24T00:22:40.851Z,4.80
2018-08-24T00:23:16.370Z,1.84
2018-08-24T00:23:51.818Z,0.00
2018-08-24T00:24:27.111Z,1.52
2018-08-24T00:25:02.534Z,2.24
2018-08-24T00:25:37.729Z,0.64
2018-08-24T00:26:13.178Z,5.36
2018-08-24T00:26:48.651Z,6.08
2018-08-24T00:27:23.671Z,5.20
2018-08-24T00:27:59.074Z,3.04
2018-08-24T00:28:34.202Z,4.08
2018-08-24T00:29:09.618Z,4.32
2018-08-24T00:29:44.967Z,1.20
2018-08-24T00:30:20.209Z,3.68
2018-08-24T00:30:55.216Z,0.96
2018-08-24T00:31:30.454Z,5.84
2018-08-24T00:32:05.754Z,2.80
2018-08-24T00:32:41.375Z,2.00
2018-08-24T00:33:17.066Z,3.60
2018-08-24T00:33:52.286Z,4.40
2018-08-24T00:34:27.673Z,5.04
2018-08-24T00:35:02.892Z,5.28
2018-08-24T00:35:38.088Z,2.08
2018-08-24T00:36:13.402Z,2.00
2018-08-24T00:36:49.083Z,0.40
2018-08-24T00:37:24.299Z,3.68
2018-08-24T00:37:59.651Z,3.68
2018-08-24T00:38:34.857Z,5.12
2018-08-24T00:39:10.864Z,4.24
2018-08-24T00:39:46.263Z,1.68
2018-08-24T00:40:21.701Z,1.92
2018-08-24T00:40:57.325Z,1.12
2018-08-24T00:41:32.511Z,1.36
2018-08-24T00:42:08.015Z,3.28
2018-08-24T00:42:43.211Z,2.08
2018-08-24T00:43:18.794Z,0.72
2018-08-24T00:43:53.922Z,1.76
2018-08-24T00:44:29.264Z,0.80
2018-08-24T00:45:04.593Z,0.48
2018-08-24T00:45:39.625Z,2.16
2018-08-24T00:46:14.832Z,0.96
2018-08-24T00:46:50.078Z,0.56
2018-08-24T00:47:25.358Z,1.60
2018-08-24T00:48:00.395Z,0.40
2018-08-24T00:48:35.779Z,0.16
2018-08-24T00:49:11.124Z,0.40
2018-08-24T00:49:46.540Z,0.96
2018-08-24T00:50:21.850Z,0.72
2018-08-24T00:50:57.471Z,1.52
2018-08-24T00:51:32.901Z,0.64
2018-08-24T00:52:08.266Z,0.72
2018-08-24T00:52:43.355Z,1.20
2018-08-24T00:53:18.568Z,1.04
2018-08-24T00:53:54.572Z,1.84
2018-08-24T00:54:29.718Z,1.84
2018-08-24T00:55:05.221Z,0.40
2018-08-24T00:55:40.679Z,1.52
2018-08-24T00:56:15.976Z,0.56
2018-08-24T00:56:51.463Z,1.04
2018-08-24T00:57:26.895Z,0.32
2018-08-24T00:58:02.400Z,1.04
2018-08-24T00:58:37.813Z,0.24
2018-08-24T00:59:13.102Z,0.40
2018-08-24T00:59:48.341Z,3.36
2018-08-24T01:00:23.658Z,0.96
2018-08-24T01:00:58.887Z,0.80
2018-08-24T01:01:34.196Z,1.60
2018-08-24T01:02:09.548Z,1.84
2018-08-24T01:02:45.381Z,2.00
2018-08-24T01:03:20.812Z,2.24
2018-08-24T01:03:56.236Z,1.20
2018-08-24T01:04:31.702Z,1.84
2018-08-24T01:05:07.376Z,2.00
2018-08-24T01:05:42.875Z,0.48
2018-08-24T01:06:18.199Z,0.24
2018-08-24T01:06:53.403Z,0.96
2018-08-24T01:07:28.856Z,0.24
2018-08-24T01:08:04.045Z,1.28
2018-08-24T01:08:39.300Z,0.72
2018-08-24T01:09:14.717Z,3.52
2018-08-24T01:09:50.443Z,4.64
2018-08-24T01:10:25.730Z,3.84
2018-08-24T01:11:01.244Z,1.28
2018-08-24T01:11:37.301Z,3.76
2018-08-24T01:12:12.898Z,1.92
2018-08-24T01:12:48.417Z,0.40
2018-08-24T01:13:23.514Z,0.96
2018-08-24T01:13:59.059Z,2.48
2018-08-24T01:14:34.468Z,0.32
2018-08-24T01:15:09.905Z,2.00
2018-08-24T01:15:46.513Z,1.12
2018-08-24T01:16:21.971Z,1.04
2018-08-24T01:16:57.716Z,5.52
2018-08-24T01:17:33.650Z,3.36
2018-08-24T01:18:09.292Z,3.20
2018-08-24T01:18:44.422Z,1.68
2018-08-24T01:19:19.837Z,1.92
2018-08-24T01:19:55.025Z,3.12
2018-08-24T01:20:30.155Z,3.68
2018-08-24T01:21:05.570Z,0.72
2018-08-24T01:21:41.404Z,1.84
2018-08-24T01:22:16.794Z,1.28
2018-08-24T01:22:52.640Z,2.56
2018-08-24T01:23:28.025Z,3.20
2018-08-24T01:24:03.676Z,2.48
2018-08-24T01:24:39.020Z,2.08
2018-08-24T01:25:14.516Z,3.36
2018-08-24T01:25:49.792Z,0.48
2018-08-24T01:26:25.187Z,0.32
2018-08-24T01:27:00.934Z,1.36
2018-08-24T01:27:36.030Z,1.04
2018-08-24T01:28:11.382Z,0.32
2018-08-24T01:28:46.477Z,0.64
2018-08-24T01:29:22.014Z,0.08
2018-08-24T01:29:57.483Z,0.00
2018-08-24T01:30:32.815Z,0.00
2018-08-24T01:31:08.031Z,2.00
2018-08-24T01:31:43.484Z,1.28
2018-08-24T01:32:18.828Z,2.56
2018-08-24T01:32:54.225Z,1.36
2018-08-24T01:33:29.825Z,0.32
2018-08-24T01:34:05.110Z,0.48
2018-08-24T01:34:40.653Z,0.48
2018-08-24T01:35:15.845Z,0.24
2018-08-24T01:35:51.045Z,0.16
2018-08-24T01:36:26.460Z,0.72
2018-08-24T01:37:02.172Z,1.76
2018-08-24T01:37:37.765Z,2.88
2018-08-24T01:38:13.291Z,1.60
2018-08-24T01:38:48.629Z,0.64
2018-08-24T01:39:23.820Z,3.20
2018-08-24T01:39:59.224Z,2.56
2018-08-24T01:40:34.398Z,1.36
2018-08-24T01:41:10.120Z,2.24
2018-08-24T01:41:45.436Z,2.64
2018-08-24T01:42:20.784Z,2.40
2018-08-24T01:42:56.292Z,2.56
2018-08-24T01:43:31.923Z,0.64
2018-08-24T01:44:07.303Z,0.24
2018-08-24T01:44:42.449Z,1.52
2018-08-24T01:45:17.763Z,3.44
2018-08-24T01:45:53.158Z,1.52
2018-08-24T01:46:28.512Z,0.56
2018-08-24T01:47:04.115Z,1.92
2018-08-24T01:47:39.458Z,1.60
2018-08-24T01:48:14.789Z,0.48
2018-08-24T01:48:50.097Z,1.12
2018-08-24T01:49:26.695Z,0.24
2018-08-24T01:50:01.900Z,0.00
2018-08-24T01:50:37.207Z,0.80
2018-08-24T01:51:12.630Z,2.16
2018-08-24T01:51:47.863Z,2.80
2018-08-24T01:52:23.201Z,3.04
2018-08-24T01:52:58.417Z,1.44
2018-08-24T01:53:33.594Z,2.64
2018-08-24T01:54:08.703Z,3.20
2018-08-24T01:54:43.886Z,3.36
2018-08-24T01:55:19.303Z,2.24
2018-08-24T01:55:54.624Z,2.80
2018-08-24T01:56:30.054Z,4.64
2018-08-24T01:57:05.232Z,2.72
2018-08-24T01:57:40.552Z,4.00
2018-08-24T01:58:15.623Z,3.20
2018-08-24T01:58:51.058Z,2.80
2018-08-24T01:59:26.381Z,1.36
2018-08-24T02:00:02.013Z,0.16
2018-08-24T02:00:37.520Z,1.20
2018-08-24T02:01:12.825Z,1.12
2018-08-24T02:01:48.177Z,1.92
2018-08-24T02:02:23.597Z,4.48
2018-08-24T02:02:59.226Z,2.72
2018-08-24T02:03:34.611Z,1.84
2018-08-24T02:04:09.956Z,0.64
2018-08-24T02:04:45.267Z,3.84
2018-08-24T02:05:21.294Z,4.40
2018-08-24T02:05:56.761Z,2.72
2018-08-24T02:06:31.910Z,5.04
2018-08-24T02:07:07.073Z,5.28
2018-08-24T02:07:42.370Z,4.48
2018-08-24T02:08:17.778Z,3.20
2018-08-24T02:08:53.305Z,3.68
2018-08-24T02:09:28.226Z,5.60
2018-08-24T02:10:03.526Z,4.24
2018-08-24T02:10:39.547Z,5.60
2018-08-24T02:11:14.955Z,4.80
2018-08-24T02:11:50.691Z,5.84
2018-08-24T02:12:26.143Z,3.44
2018-08-24T02:13:01.472Z,3.68
2018-08-24T02:13:36.844Z,1.68
2018-08-24T02:14:12.448Z,2.08
2018-08-24T02:14:47.964Z,2.72
2018-08-24T02:15:23.263Z,2.80
2018-08-24T02:15:58.764Z,3.36
2018-08-24T02:16:34.505Z,3.60
2018-08-24T02:17:09.727Z,3.12
2018-08-24T02:17:44.811Z,3.36
2018-08-24T02:18:20.241Z,3.52
2018-08-24T02:18:55.540Z,4.40
2018-08-24T02:19:31.291Z,3.44
2018-08-24T02:20:06.508Z,1.92
2018-08-24T02:20:41.394Z,3.92
2018-08-24T02:21:16.695Z,4.48
2018-08-24T02:21:52.006Z,5.84
2018-08-24T02:22:27.243Z,4.80
2018-08-24T02:23:02.748Z,5.36
2018-08-24T02:23:38.384Z,4.72
2018-08-24T02:24:13.776Z,3.36
2018-08-24T02:24:49.601Z,3.52
2018-08-24T02:25:25.006Z,1.52
2018-08-24T02:26:00.411Z,2.48
2018-08-24T02:26:35.761Z,1.68
2018-08-24T02:27:11.371Z,3.84
2018-08-24T02:27:46.617Z,3.76
2018-08-24T02:28:22.099Z,3.36
2018-08-24T02:28:57.607Z,2.16
2018-08-24T02:29:33.118Z,3.44
2018-08-24T02:30:08.731Z,2.56
2018-08-24T02:30:44.047Z,3.44
2018-08-24T02:31:19.317Z,2.24
2018-08-24T02:31:54.813Z,3.52
2018-08-24T02:32:30.243Z,2.32
2018-08-24T02:33:05.768Z,2.80
2018-08-24T02:33:41.099Z,5.84
2018-08-24T02:34:16.615Z,4.64
2018-08-24T02:34:52.109Z,4.48
2018-08-24T02:35:27.653Z,2.72
2018-08-24T02:36:02.795Z,3.84
2018-08-24T02:36:38.728Z,4.56
2018-08-24T02:37:13.947Z,3.28
2018-08-24T02:37:49.368Z,3.12
2018-08-24T02:38:24.649Z,2.08
2018-08-24T02:39:00.045Z,1.36
2018-08-24T02:39:35.279Z,3.76
2018-08-24T02:40:10.889Z,6.32
2018-08-24T02:40:46.299Z,3.76
2018-08-24T02:41:21.384Z,4.08
2018-08-24T02:41:56.617Z,3.76
2018-08-24T02:42:31.943Z,3.36
2018-08-24T02:43:07.376Z,3.76
2018-08-24T02:43:42.686Z,2.40
2018-08-24T02:44:17.926Z,2.88
2018-08-24T02:44:53.225Z,3.84
2018-08-24T02:45:28.450Z,3.92
2018-08-24T02:46:03.870Z,3.60
2018-08-24T02:46:39.086Z,2.88
2018-08-24T02:47:15.225Z,1.36
2018-08-24T02:47:50.734Z,2.80
2018-08-24T02:48:26.050Z,3.92
2018-08-24T02:49:01.570Z,2.48
2018-08-24T02:49:37.108Z,1.52
2018-08-24T02:50:12.311Z,2.72
2018-08-24T02:50:47.447Z,2.88
2018-08-24T02:51:22.800Z,6.40
2018-08-24T02:51:58.275Z,5.60
2018-08-24T02:52:33.588Z,4.32
2018-08-24T02:53:08.924Z,2.96
2018-08-24T02:53:44.151Z,3.04
2018-08-24T02:54:19.434Z,1.84
2018-08-24T02:54:54.966Z,3.28
2018-08-24T02:55:30.557Z,4.32
2018-08-24T02:56:05.887Z,1.60
2018-08-24T02:56:41.084Z,3.44
2018-08-24T02:57:16.699Z,1.12
2018-08-24T02:57:51.881Z,1.84
2018-08-24T02:58:27.401Z,0.08
2018-08-24T02:59:02.797Z,0.00
2018-08-24T02:59:37.941Z,0.88
2018-08-24T03:00:13.058Z,0.64
2018-08-24T03:00:48.256Z,1.36
2018-08-24T03:01:23.392Z,1.92
2018-08-24T03:01:58.855Z,1.92
2018-08-24T03:02:34.090Z,1.12
2018-08-24T03:03:09.514Z,0.08
2018-08-24T03:03:44.727Z,0.56
2018-08-24T03:04:20.021Z,2.56
2018-08-24T03:04:55.634Z,3.84
2018-08-24T03:05:31.296Z,1.44
2018-08-24T03:06:06.445Z,2.88
2018-08-24T03:06:42.005Z,2.00
2018-08-24T03:07:17.312Z,1.12
2018-08-24T03:07:52.573Z,1.36
2018-08-24T03:08:27.875Z,2.00
2018-08-24T03:09:03.093Z,3.04
2018-08-24T03:09:38.505Z,1.28
2018-08-24T03:10:13.834Z,2.16
2018-08-24T03:10:49.026Z,2.32
2018-08-24T03:11:24.347Z,1.76
2018-08-24T03:11:59.678Z,1.52
2018-08-24T03:12:35.123Z,3.44
2018-08-24T03:13:10.647Z,2.24
2018-08-24T03:13:45.956Z,3.12
2018-08-24T03:14:21.093Z,1.28
2018-08-24T03:14:56.771Z,1.12
2018-08-24T03:15:32.300Z,1.04
2018-08-24T03:16:07.951Z,3.20
2018-08-24T03:16:43.253Z,6.80
2018-08-24T03:17:18.772Z,4.80
2018-08-24T03:17:54.382Z,5.04
2018-08-24T03:18:29.809Z,3.44
2018-08-24T03:19:05.555Z,1.76
2018-08-24T03:19:40.640Z,2.08
2018-08-24T03:20:16.375Z,4.16
2018-08-24T03:20:51.711Z,1.68
2018-08-24T03:21:27.036Z,1.84
2018-08-24T03:22:02.644Z,1.36
2018-08-24T03:22:38.160Z,0.72
2018-08-24T03:23:13.662Z,2.96
2018-08-24T03:23:48.757Z,2.64
2018-08-24T03:24:23.875Z,0.88
2018-08-24T03:24:59.395Z,0.64
2018-08-24T03:25:34.742Z,0.96
2018-08-24T03:26:10.149Z,2.24
2018-08-24T03:26:45.501Z,2.00
2018-08-24T03:27:21.004Z,3.52
2018-08-24T03:27:56.190Z,4.00
2018-08-24T03:28:31.735Z,4.72
2018-08-24T03:29:06.836Z,3.68
2018-08-24T03:29:42.251Z,1.28
2018-08-24T03:30:17.555Z,3.20
2018-08-24T03:30:53.063Z,3.60
2018-08-24T03:31:28.632Z,2.24
2018-08-24T03:32:04.251Z,3.36
2018-08-24T03:32:39.339Z,7.36
2018-08-24T03:33:14.754Z,4.80
2018-08-24T03:33:49.937Z,4.32
2018-08-24T03:34:25.632Z,4.00
2018-08-24T03:35:01.044Z,3.92
2018-08-24T03:35:36.521Z,1.84
2018-08-24T03:36:12.357Z,2.32
2018-08-24T03:36:47.983Z,2.56
2018-08-24T03:37:23.224Z,1.60
2018-08-24T03:37:58.714Z,0.40
2018-08-24T03:38:34.224Z,0.00
2018-08-24T03:39:09.514Z,1.20
2018-08-24T03:39:44.830Z,1.60
2018-08-24T03:40:20.160Z,4.40
2018-08-24T03:40:56.467Z,2.16
2018-08-24T03:41:31.767Z,2.00
2018-08-24T03:42:07.195Z,2.88
2018-08-24T03:42:42.916Z,0.88
2018-08-24T03:43:18.327Z,1.92
2018-08-24T03:43:53.739Z,3.68
2018-08-24T03:44:29.119Z,2.72
2018-08-24T03:45:04.729Z,7.04
2018-08-24T03:45:39.863Z,3.12
2018-08-24T03:46:15.157Z,1.52
2018-08-24T03:46:50.473Z,0.80
2018-08-24T03:47:25.933Z,1.84
2018-08-24T03:48:01.407Z,1.76
2018-08-24T03:48:36.576Z,0.08
2018-08-24T03:49:11.917Z,2.48
2018-08-24T03:49:47.120Z,3.92
2018-08-24T03:50:22.748Z,4.24
2018-08-24T03:50:58.251Z,3.28
2018-08-24T03:51:33.528Z,3.04
2018-08-24T03:52:09.031Z,1.52
2018-08-24T03:52:44.597Z,1.20
2018-08-24T03:53:19.834Z,2.48
2018-08-24T03:53:55.394Z,1.52
2018-08-24T03:54:30.835Z,0.48
2018-08-24T03:55:06.236Z,3.04
2018-08-24T03:55:41.886Z,4.56
2018-08-24T03:56:17.209Z,3.76
2018-08-24T03:56:52.540Z,3.76
2018-08-24T03:57:28.081Z,4.88
2018-08-24T03:58:03.390Z,3.12
2018-08-24T03:58:39.009Z,4.88
2018-08-24T03:59:14.443Z,1.84
2018-08-24T03:59:49.647Z,2.64
2018-08-24T04:00:25.069Z,4.24
2018-08-24T04:01:00.490Z,4.16
2018-08-24T04:01:35.542Z,3.84
2018-08-24T04:02:10.665Z,4.80
2018-08-24T04:02:46.077Z,1.84
2018-08-24T04:03:21.304Z,1.20
2018-08-24T04:03:56.792Z,2.72
2018-08-24T04:04:32.229Z,1.20
2018-08-24T04:05:07.743Z,6.72
2018-08-24T04:05:43.396Z,5.44
2018-08-24T04:06:18.700Z,2.40
2018-08-24T04:06:54.245Z,3.60
2018-08-24T04:07:29.602Z,4.72
2018-08-24T04:08:04.696Z,3.12
2018-08-24T04:08:40.059Z,0.56
2018-08-24T04:09:15.456Z,1.60
2018-08-24T04:09:51.480Z,2.40
2018-08-24T04:10:26.985Z,4.32
2018-08-24T04:11:02.337Z,3.68
2018-08-24T04:11:37.544Z,2.56
2018-08-24T04:12:13.190Z,5.76
2018-08-24T04:12:48.503Z,2.96
2018-08-24T04:13:23.805Z,4.40
2018-08-24T04:13:59.019Z,2.56
2018-08-24T04:14:34.564Z,2.16
2018-08-24T04:15:10.196Z,3.44
2018-08-24T04:15:45.725Z,0.80
2018-08-24T04:16:21.180Z,0.88
2018-08-24T04:16:56.570Z,2.48
2018-08-24T04:17:31.896Z,3.68
2018-08-24T04:18:07.290Z,2.96
2018-08-24T04:18:43.522Z,0.96
2018-08-24T04:19:18.820Z,2.96
2018-08-24T04:19:53.971Z,2.80
2018-08-24T04:20:29.480Z,3.76
2018-08-24T04:21:04.601Z,3.76
2018-08-24T04:21:40.061Z,1.76
2018-08-24T04:22:15.173Z,2.96
2018-08-24T04:22:50.386Z,0.72
2018-08-24T04:23:25.893Z,0.00
2018-08-24T04:24:01.005Z,0.32
2018-08-24T04:24:36.225Z,0.40
2018-08-24T04:25:11.563Z,4.64
2018-08-24T04:25:46.906Z,5.68
2018-08-24T04:26:22.397Z,2.24
2018-08-24T04:26:57.507Z,2.64
2018-08-24T04:27:32.754Z,4.24
2018-08-24T04:28:08.022Z,4.24
2018-08-24T04:28:43.434Z,4.32
2018-08-24T04:29:18.742Z,2.08
2018-08-24T04:29:54.526Z,1.68
2018-08-24T04:30:29.870Z,1.36
2018-08-24T04:31:05.862Z,0.96
2018-08-24T04:31:41.372Z,0.40
2018-08-24T04:32:16.933Z,0.72
2018-08-24T04:32:52.058Z,1.68
2018-08-24T04:33:27.234Z,1.36
2018-08-24T04:34:02.586Z,3.68
2018-08-24T04:34:38.143Z,3.68
2018-08-24T04:35:13.454Z,3.68
2018-08-24T04:35:48.972Z,3.36
2018-08-24T04:36:24.171Z,4.72
2018-08-24T04:36:59.377Z,3.28
2018-08-24T04:37:35.003Z,1.92
2018-08-24T04:38:10.421Z,2.48
2018-08-24T04:38:45.715Z,5.12
2018-08-24T04:39:20.815Z,4.00
2018-08-24T04:39:56.032Z,2.80
2018-08-24T04:40:31.354Z,6.48
2018-08-24T04:41:06.686Z,4.88
2018-08-24T04:41:41.929Z,3.12
2018-08-24T04:42:17.252Z,2.88
2018-08-24T04:42:52.598Z,2.48
2018-08-24T04:43:28.308Z,3.84
2018-08-24T04:44:03.740Z,2.88
2018-08-24T04:44:39.287Z,3.60
2018-08-24T04:45:14.580Z,1.92
2018-08-24T04:45:50.061Z,2.64
2018-08-24T04:46:25.537Z,3.76
2018-08-24T04:47:01.061Z,3.92
2018-08-24T04:47:36.686Z,3.52
2018-08-24T04:48:12.127Z,5.36
2018-08-24T04:48:47.448Z,4.64
2018-08-24T04:49:22.576Z,5.76
2018-08-24T04:49:58.103Z,3.52
2018-08-24T04:50:33.607Z,2.80
2018-08-24T04:51:09.310Z,3.92
2018-08-24T04:51:44.500Z,4.08
2018-08-24T04:52:19.947Z,3.84
2018-08-24T04:52:55.064Z,7.52
2018-08-24T04:53:30.479Z,7.36
2018-08-24T04:54:05.755Z,5.04
2018-08-24T04:54:41.172Z,2.16
2018-08-24T04:55:17.085Z,5.68
2018-08-24T04:55:52.691Z,4.72
2018-08-24T04:56:28.049Z,3.60
2018-08-24T04:57:03.432Z,7.20
2018-08-24T04:57:39.076Z,5.36
2018-08-24T04:58:14.106Z,4.48
2018-08-24T04:58:49.301Z,3.92
2018-08-24T04:59:24.701Z,3.52
2018-08-24T05:00:01.033Z,4.32
2018-08-24T05:00:36.343Z,0.88
2018-08-24T05:01:11.659Z,4.48
2018-08-24T05:01:47.208Z,3.12
2018-08-24T05:02:23.008Z,7.04
2018-08-24T05:02:58.349Z,3.20
2018-08-24T05:03:33.749Z,9.60
2018-08-24T05:04:09.259Z,4.72
2018-08-24T05:04:44.755Z,5.84
2018-08-24T05:05:20.081Z,8.32
2018-08-24T05:05:55.483Z,7.28
2018-08-24T05:06:30.791Z,4.08
2018-08-24T05:07:06.188Z,7.04
2018-08-24T05:07:41.756Z,5.76
2018-08-24T05:08:17.235Z,4.88
2018-08-24T05:08:52.343Z,5.60
2018-08-24T05:09:27.641Z,4.16
2018-08-24T05:10:02.738Z,3.36
2018-08-24T05:10:38.169Z,4.96
2018-08-24T05:11:13.595Z,6.08
2018-08-24T05:11:48.957Z,7.20
2018-08-24T05:12:24.105Z,7.52
2018-08-24T05:12:59.543Z,6.08
2018-08-24T05:13:35.151Z,6.72
2018-08-24T05:14:10.852Z,1.68
2018-08-24T05:14:46.472Z,1.76
2018-08-24T05:15:21.903Z,3.76
2018-08-24T05:15:57.235Z,4.32
2018-08-24T05:16:32.445Z,3.68
2018-08-24T05:17:07.658Z,5.68
2018-08-24T05:17:43.046Z,5.36
2018-08-24T05:18:18.270Z,4.88
2018-08-24T05:18:53.474Z,3.04
2018-08-24T05:19:29.017Z,4.72
2018-08-24T05:20:04.620Z,5.84
2018-08-24T05:20:39.930Z,3.60
2018-08-24T05:21:15.717Z,6.88
2018-08-24T05:21:50.867Z,7.52
2018-08-24T05:22:26.392Z,6.80
2018-08-24T05:23:01.516Z,5.20
2018-08-24T05:23:37.153Z,2.48
2018-08-24T05:24:12.583Z,2.64
2018-08-24T05:24:47.858Z,4.08
2018-08-24T05:25:22.910Z,2.00
2018-08-24T05:25:58.162Z,0.72
2018-08-24T05:26:33.679Z,0.08
2018-08-24T05:27:09.116Z,1.20
2018-08-24T05:27:45.003Z,1.68
2018-08-24T05:28:20.093Z,2.80
2018-08-24T05:28:55.342Z,5.92
2018-08-24T05:29:30.665Z,5.84
2018-08-24T05:30:05.783Z,4.64
2018-08-24T05:30:41.092Z,4.48
2018-08-24T05:31:16.401Z,8.32
2018-08-24T05:31:51.804Z,5.84
2018-08-24T05:32:27.228Z,6.24
2018-08-24T05:33:02.806Z,4.48
2018-08-24T05:33:37.940Z,3.92
2018-08-24T05:34:13.174Z,4.48
2018-08-24T05:34:48.678Z,2.00
2018-08-24T05:35:23.895Z,3.76
2018-08-24T05:35:59.298Z,2.64
2018-08-24T05:36:34.652Z,6.40
2018-08-24T05:37:09.975Z,5.60
2018-08-24T05:37:45.196Z,5.52
2018-08-24T05:38:20.605Z,10.08
2018-08-24T05:38:55.826Z,6.24
2018-08-24T05:39:31.077Z,6.96
2018-08-24T05:40:06.396Z,6.16
2018-08-24T05:40:41.704Z,5.84
2018-08-24T05:41:16.975Z,4.64
2018-08-24T05:41:52.347Z,8.56
2018-08-24T05:42:27.658Z,6.72
2018-08-24T05:43:02.894Z,8.48
2018-08-24T05:43:38.188Z,7.44
2018-08-24T05:44:13.513Z,7.04
2018-08-24T05:44:48.628Z,2.80
2018-08-24T05:45:24.161Z,2.96
2018-08-24T05:45:59.468Z,3.20
2018-08-24T05:46:34.784Z,3.44
2018-08-24T05:47:10.130Z,6.24
2018-08-24T05:47:45.570Z,4.72
2018-08-24T05:48:21.001Z,3.36
2018-08-24T05:48:56.586Z,7.36
2018-08-24T05:49:32.147Z,5.36
2018-08-24T05:50:07.183Z,5.04
2018-08-24T05:50:42.794Z,3.28
2018-08-24T05:51:18.297Z,4.96
2018-08-24T05:51:53.614Z,5.20
2018-08-24T05:52:28.924Z,5.28
2018-08-24T05:53:04.163Z,5.76
2018-08-24T05:53:39.493Z,3.52
2018-08-24T05:54:14.619Z,6.24
2018-08-24T05:54:50.621Z,5.52
2018-08-24T05:55:25.938Z,4.56
2018-08-24T05:56:01.165Z,3.52
2018-08-24T05:56:36.473Z,4.72
2018-08-24T05:57:11.715Z,5.04
2018-08-24T05:57:47.227Z,5.20
2018-08-24T05:58:22.596Z,2.96
2018-08-24T05:58:57.878Z,5.20
2018-08-24T05:59:33.502Z,5.36
2018-08-24T06:00:08.971Z,6.88
2018-08-24T06:00:44.613Z,7.44
2018-08-24T06:01:20.069Z,6.32
2018-08-24T06:01:55.493Z,9.36
2018-08-24T06:02:30.958Z,6.00
2018-08-24T06:03:06.258Z,7.92
2018-08-24T06:03:41.528Z,3.84
2018-08-24T06:04:16.650Z,4.08
2018-08-24T06:04:51.964Z,3.68
2018-08-24T06:05:27.374Z,6.40
2018-08-24T06:06:03.177Z,5.36
2018-08-24T06:06:38.773Z,4.24
2018-08-24T06:07:13.897Z,5.44
2018-08-24T06:07:49.145Z,6.64
2018-08-24T06:08:24.298Z,6.08
2018-08-24T06:08:59.630Z,6.72
2018-08-24T06:09:34.851Z,3.68
2018-08-24T06:10:10.094Z,4.32
2018-08-24T06:10:45.582Z,5.20
2018-08-24T06:11:20.803Z,5.28
2018-08-24T06:11:56.221Z,4.64
2018-08-24T06:12:31.826Z,7.28
2018-08-24T06:13:06.916Z,8.24
2018-08-24T06:13:42.201Z,5.52
2018-08-24T06:14:17.793Z,5.04
2018-08-24T06:14:53.523Z,7.28
2018-08-24T06:15:28.929Z,3.76
2018-08-24T06:16:04.126Z,5.12
2018-08-24T06:16:39.497Z,5.84
2018-08-24T06:17:14.680Z,6.00
2018-08-24T06:17:50.008Z,6.08
2018-08-24T06:18:25.612Z,4.88
2018-08-24T06:19:01.157Z,3.44
2018-08-24T06:19:36.667Z,4.96
2018-08-24T06:20:12.131Z,5.28
2018-08-24T06:20:47.387Z,6.56
2018-08-24T06:21:22.831Z,6.40
2018-08-24T06:21:58.237Z,6.00
2018-08-24T06:22:33.548Z,4.48
2018-08-24T06:23:09.132Z,4.56
2018-08-24T06:23:44.480Z,5.76
2018-08-24T06:24:20.171Z,8.56
2018-08-24T06:24:55.477Z,11.21
2018-08-24T06:25:30.805Z,5.28
2018-08-24T06:26:05.901Z,5.28
2018-08-24T06:26:41.219Z,7.44
2018-08-24T06:27:16.554Z,5.60
2018-08-24T06:27:51.607Z,3.52
2018-08-24T06:28:26.719Z,6.96
2018-08-24T06:29:01.883Z,3.92
2018-08-24T06:29:37.116Z,3.36
2018-08-24T06:30:12.568Z,4.64
2018-08-24T06:30:48.112Z,6.64
2018-08-24T06:31:23.451Z,5.04
2018-08-24T06:31:58.844Z,4.32
2018-08-24T06:32:34.160Z,9.20
2018-08-24T06:33:09.425Z,6.00
2018-08-24T06:33:44.692Z,6.48
2018-08-24T06:34:24.318Z,6.24
2018-08-24T06:34:59.609Z,7.68
2018-08-24T06:35:35.180Z,3.84
2018-08-24T06:36:10.489Z,8.08
2018-08-24T06:36:45.825Z,8.40
2018-08-24T06:37:21.385Z,6.40
2018-08-24T06:37:56.703Z,6.48
2018-08-24T06:38:32.080Z,5.68
2018-08-24T06:39:07.517Z,5.92
2018-08-24T06:39:43.586Z,5.36
2018-08-24T06:40:18.981Z,4.88
2018-08-24T06:40:54.519Z,5.12
2018-08-24T06:41:30.123Z,4.40
2018-08-24T06:42:11.777Z,4.40
2018-08-24T06:45:26.180Z,2.37
2018-08-24T06:46:01.586Z,4.08
2018-08-24T06:46:37.792Z,4.80
2018-08-24T06:47:13.140Z,3.60
2018-08-24T06:49:49.566Z,3.34
2018-08-24T06:50:24.881Z,10.97
2018-08-24T06:51:00.890Z,5.20
2018-08-24T06:51:36.436Z,6.32
2018-08-24T06:52:12.049Z,12.49
2018-08-24T06:54:49.120Z,2.07
2018-08-24T06:55:25.632Z,6.64
2018-08-24T06:56:00.860Z,8.08
2018-08-24T06:56:35.971Z,10.40
2018-08-24T06:57:11.219Z,7.36
2018-08-24T06:57:46.497Z,2.00
2018-08-24T06:58:21.721Z,4.64
2018-08-24T07:00:59.123Z,2.01
2018-08-24T07:01:34.456Z,8.56
2018-08-24T07:02:10.239Z,5.68
2018-08-24T07:02:45.732Z,3.76
2018-08-24T07:06:01.370Z,2.87
2018-08-24T07:06:36.480Z,8.96
2018-08-24T07:07:12.099Z,4.96
2018-08-24T07:07:47.613Z,6.48
2018-08-24T07:08:23.080Z,6.72
2018-08-24T07:08:58.203Z,6.00
2018-08-24T07:09:33.510Z,5.68
2018-08-24T07:10:08.930Z,7.04
2018-08-24T07:10:44.250Z,6.96
2018-08-24T07:11:19.534Z,1.76
2018-08-24T07:11:54.911Z,3.68
2018-08-24T07:12:30.151Z,2.64
2018-08-24T07:13:05.739Z,4.32
2018-08-24T07:13:41.021Z,4.40
2018-08-24T07:16:17.264Z,5.06
2018-08-24T07:16:52.878Z,7.60
2018-08-24T07:17:28.148Z,4.08
2018-08-24T07:18:03.484Z,4.96
2018-08-24T07:18:38.865Z,7.28
2018-08-24T07:19:14.186Z,4.64
2018-08-24T07:19:49.740Z,4.88
2018-08-24T07:23:05.180Z,2.43
2018-08-24T07:23:40.489Z,3.68
2018-08-24T07:24:15.927Z,4.88
2018-08-24T07:27:30.245Z,2.30
2018-08-24T07:28:05.554Z,6.88
2018-08-24T07:28:40.966Z,6.72
2018-08-24T07:29:16.470Z,5.12
2018-08-24T07:29:51.895Z,2.80
2018-08-24T07:30:27.170Z,9.12
2018-08-24T07:31:02.352Z,6.56
2018-08-24T07:31:37.564Z,6.40
2018-08-24T07:32:12.870Z,7.60
2018-08-24T07:32:48.132Z,7.92
2018-08-24T07:33:23.624Z,6.64
2018-08-24T07:34:00.440Z,8.24
2018-08-24T07:34:35.772Z,4.56
2018-08-24T07:35:11.216Z,4.96
2018-08-24T07:35:46.343Z,5.60
2018-08-24T07:36:21.461Z,6.40
2018-08-24T07:36:56.848Z,7.04
2018-08-24T07:37:32.378Z,0.64
2018-08-24T07:38:08.260Z,2.88
2018-08-24T07:38:43.246Z,7.28
2018-08-24T07:39:18.712Z,5.36
2018-08-24T07:39:54.182Z,7.92
2018-08-24T07:40:29.522Z,9.20
2018-08-24T07:41:04.809Z,8.56
2018-08-24T07:41:40.403Z,6.56
2018-08-24T07:42:15.525Z,7.92
2018-08-24T07:42:50.622Z,10.81
2018-08-24T07:43:26.307Z,7.60
2018-08-24T07:44:01.770Z,8.16
2018-08-24T07:46:38.487Z,4.15
2018-08-24T07:47:13.828Z,7.04
2018-08-24T07:47:49.114Z,3.60
2018-08-24T07:48:25.043Z,2.88
2018-08-24T07:49:00.449Z,6.64
2018-08-24T07:49:35.543Z,6.24
2018-08-24T07:50:13.976Z,3.52
2018-08-24T07:50:49.335Z,4.88
2018-08-24T07:51:24.990Z,4.72
2018-08-24T07:52:00.962Z,7.20
2018-08-24T07:52:36.679Z,7.52
2018-08-24T07:53:12.176Z,9.12
2018-08-24T07:53:47.482Z,3.04
2018-08-24T07:54:22.686Z,2.80
2018-08-24T07:54:58.412Z,7.20
2018-08-24T07:55:33.478Z,9.04
2018-08-24T07:56:08.925Z,9.28
2018-08-24T07:56:44.267Z,4.32
2018-08-24T07:57:19.797Z,8.24
2018-08-24T07:57:55.022Z,8.80
2018-08-24T07:58:30.492Z,11.05
2018-08-24T08:01:45.046Z,1.82
2018-08-24T08:02:20.238Z,5.84
2018-08-24T08:02:56.727Z,9.04
2018-08-24T08:03:32.223Z,4.80
2018-08-24T08:06:46.536Z,0.71
2018-08-24T08:07:22.251Z,5.28
2018-08-24T08:07:58.265Z,3.52
2018-08-24T08:08:33.682Z,5.76
2018-08-24T08:11:48.039Z,2.33
2018-08-24T08:14:25.708Z,1.12
2018-08-24T08:15:01.331Z,1.36
2018-08-24T08:15:36.867Z,2.80
2018-08-24T08:16:12.048Z,4.00
2018-08-24T08:16:47.772Z,3.12
2018-08-24T08:17:23.146Z,2.16
2018-08-24T08:17:58.652Z,6.72
2018-08-24T08:18:34.025Z,2.80
2018-08-24T08:19:09.159Z,4.24
2018-08-24T08:21:46.145Z,0.88
2018-08-24T08:22:21.586Z,0.72
2018-08-24T08:22:56.998Z,2.96
2018-08-24T08:23:32.375Z,5.36
2018-08-24T08:24:07.798Z,3.52